createdAt,value
2022-11-24T00:01:33.431Z,1.31
2022-11-24T00:06:36.925Z,1.26
2022-11-24T00:11:40.300Z,1.26
2022-11-24T00:16:44.853Z,1.30
2022-11-24T00:21:49.555Z,1.31
2022-11-24T00:26:53.244Z,1.31
2022-11-24T00:31:57.963Z,1.31
2022-11-24T00:37:01.227Z,1.35
2022-11-24T00:42:04.738Z,1.37
2022-11-24T00:47:08.844Z,1.36
2022-11-24T00:52:12.339Z,1.31
2022-11-24T00:57:15.994Z,1.26
2022-11-24T01:02:19.527Z,1.16
2022-11-24T01:07:23.485Z,1.14
2022-11-24T01:12:27.197Z,1.19
2022-11-24T01:17:30.903Z,1.21
2022-11-24T01:22:35.158Z,1.17
2022-11-24T01:27:38.962Z,1.16
2022-11-24T01:32:42.220Z,1.22
2022-11-24T01:37:45.425Z,1.25
2022-11-24T01:42:53.399Z,1.26
2022-11-24T01:47:57.802Z,1.23
2022-11-24T01:53:01.462Z,1.23
2022-11-24T01:58:19.805Z,1.21
2022-11-24T02:03:30.157Z,1.17
2022-11-24T02:08:40.016Z,1.14
2022-11-24T02:13:45.975Z,1.15
2022-11-24T02:18:49.783Z,1.12
2022-11-24T02:24:14.668Z,1.09
2022-11-24T02:29:20.284Z,1.08
2022-11-24T02:34:23.741Z,1.06
2022-11-24T02:39:27.146Z,1.03
2022-11-24T02:44:36.404Z,0.97
2022-11-24T02:49:39.710Z,0.88
2022-11-24T02:54:42.943Z,0.86
2022-11-24T02:59:46.940Z,0.87
2022-11-24T03:04:50.638Z,0.84
2022-11-24T03:09:54.245Z,0.81
2022-11-24T03:14:57.397Z,0.81
2022-11-24T03:20:04.954Z,0.78
2022-11-24T03:25:09.109Z,0.71
2022-11-24T03:30:13.204Z,0.69
2022-11-24T03:35:17.314Z,0.66
2022-11-24T03:40:20.908Z,0.56
2022-11-24T03:45:45.593Z,0.45
2022-11-24T03:51:01.679Z,0.45
2022-11-24T03:56:04.996Z,0.45
2022-11-24T04:01:08.765Z,0.43
2022-11-24T04:06:12.382Z,0.41
2022-11-24T04:11:36.114Z,0.46
2022-11-24T04:16:39.833Z,0.47
2022-11-24T04:21:44.285Z,0.47
2022-11-24T04:26:48.312Z,0.47
2022-11-24T04:31:52.129Z,0.48
2022-11-24T04:36:56.277Z,0.49
2022-11-24T04:42:00.377Z,0.47
2022-11-24T04:47:04.680Z,0.42
2022-11-24T04:52:08.666Z,0.40
2022-11-24T04:57:20.956Z,0.36
2022-11-24T05:02:24.767Z,0.30
2022-11-24T05:07:29.145Z,0.29
2022-11-24T05:12:32.814Z,0.27
2022-11-24T05:17:39.561Z,0.17
2022-11-24T05:22:43.230Z,0.14
2022-11-24T05:27:46.682Z,0.20
2022-11-24T05:32:50.164Z,0.25
2022-11-24T05:37:53.666Z,0.26
2022-11-24T05:42:57.406Z,0.26
2022-11-24T05:48:09.172Z,0.30
2022-11-24T05:53:14.476Z,0.28
2022-11-24T05:58:17.701Z,0.27
2022-11-24T06:03:21.571Z,0.26
2022-11-24T06:08:30.706Z,0.32
2022-11-24T06:13:35.681Z,0.34
2022-11-24T06:18:39.797Z,0.35
2022-11-24T06:23:43.742Z,0.36
2022-11-24T06:28:48.151Z,0.36
2022-11-24T06:33:51.808Z,0.31
2022-11-24T06:38:55.263Z,0.26
2022-11-24T06:43:58.615Z,0.21
2022-11-24T06:49:02.559Z,0.23
2022-11-24T06:54:10.706Z,0.29
2022-11-24T06:59:18.838Z,0.29
2022-11-24T07:04:22.434Z,0.25
2022-11-24T07:09:25.662Z,0.24
2022-11-24T07:14:28.847Z,0.26
2022-11-24T07:19:32.424Z,0.33
2022-11-24T07:24:36.124Z,0.38
2022-11-24T07:29:39.991Z,0.38
2022-11-24T07:34:43.252Z,0.35
2022-11-24T07:39:47.684Z,0.33
2022-11-24T07:44:51.624Z,0.36
2022-11-24T07:49:55.183Z,0.38
2022-11-24T07:54:59.349Z,0.37
2022-11-24T08:00:04.652Z,0.45
2022-11-24T08:05:09.070Z,0.54
2022-11-24T08:10:12.475Z,0.58
2022-11-24T08:15:16.768Z,0.54
2022-11-24T08:20:20.475Z,0.55
2022-11-24T08:25:25.779Z,0.59
2022-11-24T08:30:30.470Z,0.63
2022-11-24T08:35:38.259Z,0.63
2022-11-24T08:40:42.154Z,0.61
2022-11-24T08:45:46.283Z,0.64
2022-11-24T08:50:49.808Z,0.69
2022-11-24T08:55:56.787Z,0.66
2022-11-24T09:01:16.555Z,0.62
2022-11-24T09:06:23.767Z,0.60
2022-11-24T09:11:27.930Z,0.63
2022-11-24T09:16:31.503Z,0.66
2022-11-24T09:21:39.355Z,0.67
2022-11-24T09:26:47.245Z,0.66
2022-11-24T09:31:52.100Z,0.64
2022-11-24T09:36:56.364Z,0.67
2022-11-24T09:42:16.555Z,0.74
2022-11-24T09:47:49.165Z,0.76
2022-11-24T09:53:08.140Z,0.78
2022-11-24T09:58:24.968Z,0.84
2022-11-24T10:03:40.938Z,0.95
2022-11-24T10:08:54.443Z,1.07
2022-11-24T10:14:10.805Z,1.13
2022-11-24T10:19:37.309Z,1.14
2022-11-24T10:25:15.764Z,1.12
2022-11-24T10:30:22.646Z,1.13
2022-11-24T10:35:38.443Z,1.16
2022-11-24T10:40:57.084Z,1.15
2022-11-24T10:46:19.403Z,1.17
2022-11-24T10:51:22.890Z,1.21
2022-11-24T10:56:26.292Z,1.26
2022-11-24T11:01:33.526Z,1.34
2022-11-24T11:06:38.311Z,1.33
2022-11-24T11:11:43.224Z,1.27
2022-11-24T11:16:53.878Z,1.21
2022-11-24T11:22:10.281Z,1.23
2022-11-24T11:27:18.285Z,1.30
2022-11-24T11:37:53.876Z,1.39
2022-11-24T11:43:21.634Z,1.41
2022-11-24T11:48:43.307Z,1.40
2022-11-24T11:54:24.781Z,1.40
2022-11-24T11:59:28.125Z,1.42
2022-11-24T12:04:34.139Z,1.40
2022-11-24T12:10:08.328Z,1.42
2022-11-24T12:15:21.151Z,1.45
2022-11-24T12:20:53.384Z,1.51
2022-11-24T12:26:23.219Z,1.50
2022-11-24T12:31:53.157Z,1.43
2022-11-24T12:37:26.510Z,1.39
2022-11-24T12:42:55.000Z,1.29
2022-11-24T12:48:19.742Z,1.31
2022-11-24T12:53:31.166Z,1.36
2022-11-24T12:58:57.297Z,1.35
2022-11-24T13:04:36.606Z,1.26
2022-11-24T13:10:19.394Z,1.25
2022-11-24T13:15:44.604Z,1.29
2022-11-24T13:20:48.100Z,1.29
2022-11-24T13:26:16.478Z,1.22
2022-11-24T13:31:23.613Z,1.10
2022-11-24T13:36:29.187Z,1.01
2022-11-24T13:41:32.867Z,1.00
2022-11-24T13:47:06.308Z,1.03
2022-11-24T13:52:49.109Z,1.05
2022-11-24T13:57:57.350Z,1.02
2022-11-24T14:03:24.316Z,0.99
2022-11-24T14:08:32.118Z,1.02
2022-11-24T14:13:35.754Z,0.99
2022-11-24T14:18:42.330Z,0.95
2022-11-24T14:23:48.660Z,0.91
2022-11-24T14:28:55.568Z,0.88
2022-11-24T14:34:12.180Z,0.87
2022-11-24T14:39:21.414Z,0.88
2022-11-24T14:44:56.933Z,0.89
2022-11-24T14:50:23.364Z,0.87
2022-11-24T14:55:32.626Z,0.82
2022-11-24T15:00:36.664Z,0.84
2022-11-24T15:05:59.295Z,0.86
2022-11-24T15:11:06.487Z,0.87
2022-11-24T15:16:20.163Z,0.86
2022-11-24T15:21:37.064Z,0.83
2022-11-24T15:26:42.392Z,0.83
2022-11-24T15:31:50.976Z,0.85
2022-11-24T15:36:56.972Z,0.84
2022-11-24T15:42:00.653Z,0.80
2022-11-24T15:47:06.345Z,0.79
2022-11-24T15:52:11.901Z,0.78
2022-11-24T15:57:18.314Z,0.79
2022-11-24T16:02:23.966Z,0.78
2022-11-24T16:07:28.830Z,0.78
2022-11-24T16:12:33.387Z,0.75
2022-11-24T16:17:38.122Z,0.74
2022-11-24T16:22:42.574Z,0.73
2022-11-24T16:27:47.618Z,0.74
2022-11-24T16:32:51.877Z,0.71
2022-11-24T16:37:57.171Z,0.66
2022-11-24T16:43:02.043Z,0.67
2022-11-24T16:48:05.990Z,0.70
2022-11-24T16:53:10.516Z,0.73
2022-11-24T16:58:15.682Z,0.72
2022-11-24T17:03:23.215Z,0.71
2022-11-24T17:08:32.734Z,0.68
2022-11-24T17:13:39.673Z,0.66
2022-11-24T17:18:46.137Z,0.70
2022-11-24T17:23:59.477Z,0.60
2022-11-24T17:29:04.074Z,0.48
2022-11-24T17:34:10.472Z,0.52
2022-11-24T17:39:18.004Z,0.56
2022-11-24T17:44:25.641Z,0.44
2022-11-24T17:49:32.482Z,0.29
2022-11-24T17:54:46.494Z,0.29
2022-11-24T17:59:54.276Z,0.20
2022-11-24T18:04:59.802Z,0.20
2022-11-24T18:10:07.816Z,0.25
2022-11-24T18:15:16.491Z,0.29
2022-11-24T18:20:24.093Z,0.36
2022-11-24T18:25:28.842Z,0.31
2022-11-24T18:30:32.995Z,0.32
2022-11-24T18:35:37.514Z,0.32
2022-11-24T18:40:42.161Z,0.31
2022-11-24T18:45:47.809Z,0.36
2022-11-24T18:50:56.762Z,0.44
2022-11-24T18:56:09.837Z,0.43
2022-11-24T19:01:17.143Z,0.44
2022-11-24T19:06:33.885Z,0.46
2022-11-24T19:11:45.093Z,0.43
2022-11-24T19:16:50.941Z,0.46
2022-11-24T19:21:57.588Z,0.51
2022-11-24T19:27:05.045Z,0.49
2022-11-24T19:32:17.501Z,0.42
2022-11-24T19:37:26.105Z,0.34
2022-11-24T19:42:30.380Z,0.27
2022-11-24T19:47:35.624Z,0.29
2022-11-24T19:52:39.541Z,0.31
2022-11-24T19:57:44.697Z,0.28
2022-11-24T20:02:51.348Z,0.31
2022-11-24T20:07:57.836Z,0.32
2022-11-24T20:13:05.433Z,0.44
2022-11-24T20:18:11.242Z,0.54
2022-11-24T20:23:16.186Z,0.55
2022-11-24T20:28:22.796Z,0.56
2022-11-24T20:33:27.848Z,0.53
2022-11-24T20:38:35.356Z,0.56
2022-11-24T20:43:41.158Z,0.56
2022-11-24T20:48:45.794Z,0.57
2022-11-24T20:53:51.466Z,0.59
2022-11-24T20:58:56.308Z,0.56
2022-11-24T21:04:00.253Z,0.61
2022-11-24T21:09:06.278Z,0.72
2022-11-24T21:14:10.046Z,0.76
2022-11-24T21:19:15.190Z,0.80
2022-11-24T21:24:21.913Z,0.78
2022-11-24T21:29:26.254Z,0.76
2022-11-24T21:34:29.825Z,0.78
2022-11-24T21:39:33.795Z,0.86
2022-11-24T21:44:37.542Z,0.89
2022-11-24T21:49:41.282Z,0.90
2022-11-24T21:54:44.823Z,0.90
2022-11-24T21:59:48.165Z,0.92
2022-11-24T22:04:51.716Z,0.97
2022-11-24T22:09:55.320Z,0.98
2022-11-24T22:14:59.125Z,0.98
2022-11-24T22:20:02.550Z,0.97
2022-11-24T22:25:06.554Z,1.02
2022-11-24T22:30:10.897Z,1.08
2022-11-24T22:35:14.488Z,1.10
2022-11-24T22:40:18.187Z,1.13
2022-11-24T22:45:22.245Z,1.14
2022-11-24T22:50:25.997Z,1.17
2022-11-24T22:55:29.548Z,1.16
2022-11-24T23:00:33.133Z,1.13
2022-11-24T23:05:36.812Z,1.09
2022-11-24T23:10:41.273Z,1.08
2022-11-24T23:15:44.514Z,1.12
2022-11-24T23:20:48.267Z,1.11
2022-11-24T23:25:51.956Z,1.08
2022-11-24T23:31:01.759Z,1.08
2022-11-24T23:36:11.493Z,1.14
2022-11-24T23:41:21.576Z,1.22
2022-11-24T23:46:26.308Z,1.24
2022-11-24T23:51:33.000Z,1.18
2022-11-24T23:56:36.937Z,1.10
